createdAt,value
2023-01-09T00:01:36.645Z,28.42
2023-01-09T00:04:05.649Z,29.83
2023-01-09T00:06:34.229Z,26.35
2023-01-09T00:09:02.922Z,28.00
2023-01-09T00:11:31.155Z,29.10
2023-01-09T00:13:59.955Z,26.42
2023-01-09T00:16:28.528Z,26.08
2023-01-09T00:18:56.827Z,28.13
2023-01-09T00:21:25.228Z,27.80
2023-01-09T00:23:55.496Z,27.02
2023-01-09T00:26:23.889Z,25.95
2023-01-09T00:28:53.009Z,25.42
2023-01-09T00:31:22.028Z,27.13
2023-01-09T00:33:56.013Z,28.98
2023-01-09T00:36:24.341Z,25.17
2023-01-09T00:38:52.905Z,24.92
2023-01-09T00:41:29.643Z,21.80
2023-01-09T00:44:02.324Z,20.88
2023-01-09T00:46:36.149Z,23.27
2023-01-09T00:49:07.634Z,25.25
2023-01-09T00:51:36.129Z,23.98
2023-01-09T00:54:04.936Z,24.23
2023-01-09T00:56:35.366Z,21.65
2023-01-09T00:59:04.920Z,21.77
2023-01-09T01:01:33.481Z,20.80
2023-01-09T01:04:01.937Z,22.25
2023-01-09T01:06:30.223Z,22.23
2023-01-09T01:08:58.455Z,22.73
2023-01-09T01:11:26.925Z,21.25
2023-01-09T01:13:55.403Z,22.45
2023-01-09T01:16:23.655Z,24.83
2023-01-09T01:18:52.111Z,23.55
2023-01-09T01:21:20.514Z,26.35
2023-01-09T01:23:48.674Z,25.20
2023-01-09T01:26:17.622Z,23.20
2023-01-09T01:28:46.106Z,22.05
2023-01-09T01:31:19.395Z,23.95
2023-01-09T01:33:47.949Z,27.67
2023-01-09T01:36:16.310Z,28.05
2023-01-09T01:38:45.148Z,28.70
2023-01-09T01:41:13.662Z,25.17
2023-01-09T01:43:53.861Z,21.42
2023-01-09T01:46:22.879Z,23.27
2023-01-09T01:49:15.200Z,21.20
2023-01-09T01:56:51.942Z,24.00
2023-01-09T01:59:25.732Z,23.02
2023-01-09T02:01:58.604Z,21.08
2023-01-09T02:04:28.001Z,23.38
2023-01-09T02:06:57.940Z,36.13
2023-01-09T02:09:27.163Z,38.50
2023-01-09T02:11:58.905Z,41.33
2023-01-09T02:14:32.775Z,44.35
2023-01-09T02:17:01.081Z,42.80
2023-01-09T02:19:49.625Z,43.83
2023-01-09T02:22:37.836Z,44.22
2023-01-09T02:25:38.174Z,41.60
2023-01-09T02:28:18.911Z,39.28
2023-01-09T02:31:11.185Z,37.25
2023-01-09T02:34:11.859Z,42.47
2023-01-09T02:36:58.210Z,41.33
2023-01-09T02:39:38.772Z,38.67
2023-01-09T02:42:19.705Z,35.38
2023-01-09T02:44:48.141Z,32.90
2023-01-09T02:47:16.449Z,30.40
2023-01-09T02:50:03.548Z,30.88
2023-01-09T02:53:13.563Z,31.02
2023-01-09T02:55:51.092Z,35.95
2023-01-09T02:58:42.040Z,35.88
2023-01-09T03:01:19.284Z,37.97
2023-01-09T03:03:56.269Z,36.55
2023-01-09T03:06:25.469Z,35.13
2023-01-09T03:08:58.979Z,34.55
2023-01-09T03:11:33.366Z,33.05
2023-01-09T03:14:12.775Z,34.97
2023-01-09T03:16:42.831Z,34.22
2023-01-09T03:19:16.458Z,34.53
2023-01-09T03:21:47.026Z,33.67
2023-01-09T03:24:15.312Z,35.45
2023-01-09T03:26:44.109Z,37.65
2023-01-09T03:29:12.291Z,33.45
2023-01-09T03:31:40.454Z,35.17
2023-01-09T03:34:09.166Z,35.35
2023-01-09T03:36:38.449Z,35.20
2023-01-09T03:39:06.553Z,38.10
2023-01-09T03:41:34.976Z,37.28
2023-01-09T03:44:03.330Z,37.50
2023-01-09T03:46:31.783Z,32.47
2023-01-09T03:48:59.963Z,34.33
2023-01-09T03:51:28.484Z,32.50
2023-01-09T03:53:56.848Z,31.85
2023-01-09T03:56:25.172Z,32.08
2023-01-09T03:58:53.415Z,28.38
2023-01-09T04:01:21.884Z,29.35
2023-01-09T04:03:50.477Z,28.38
2023-01-09T04:06:18.689Z,26.88
2023-01-09T04:08:46.946Z,26.05
2023-01-09T04:11:15.285Z,27.65
2023-01-09T04:13:43.489Z,25.88
2023-01-09T04:16:12.193Z,28.10
2023-01-09T04:18:40.436Z,35.22
2023-01-09T04:21:08.836Z,34.60
2023-01-09T04:23:37.029Z,31.48
2023-01-09T04:26:05.284Z,29.88
2023-01-09T04:28:33.557Z,32.13
2023-01-09T04:31:01.804Z,31.67
2023-01-09T04:33:30.251Z,29.98
2023-01-09T04:35:58.584Z,31.13
2023-01-09T04:38:26.991Z,30.77
2023-01-09T04:40:55.295Z,29.67
2023-01-09T04:43:23.590Z,28.75
2023-01-09T04:45:51.874Z,28.48
2023-01-09T04:48:20.290Z,30.60
2023-01-09T04:50:48.508Z,30.88
2023-01-09T04:53:16.739Z,32.28
2023-01-09T04:55:45.122Z,33.97
2023-01-09T04:58:13.335Z,34.97
2023-01-09T05:00:41.572Z,32.05
2023-01-09T05:03:09.874Z,34.55
2023-01-09T05:05:37.915Z,34.90
2023-01-09T05:08:06.527Z,36.90
2023-01-09T05:10:34.613Z,36.65
2023-01-09T05:13:02.859Z,34.40
2023-01-09T05:15:31.061Z,34.45
2023-01-09T05:17:59.270Z,33.58
2023-01-09T05:20:27.524Z,33.17
2023-01-09T05:22:55.578Z,31.40
2023-01-09T05:25:23.845Z,31.73
2023-01-09T05:27:52.202Z,30.92
2023-01-09T05:30:20.516Z,29.58
2023-01-09T05:32:48.728Z,29.90
2023-01-09T05:35:17.106Z,29.00
2023-01-09T05:37:45.388Z,28.20
2023-01-09T05:40:14.173Z,28.35
2023-01-09T05:42:44.096Z,27.48
2023-01-09T05:45:12.905Z,26.50
2023-01-09T05:47:41.211Z,29.40
2023-01-09T05:50:09.895Z,28.23
2023-01-09T05:52:38.157Z,28.40
2023-01-09T05:55:07.837Z,28.10
2023-01-09T05:57:36.027Z,27.70
2023-01-09T06:00:05.283Z,27.80
2023-01-09T06:02:34.943Z,27.90
2023-01-09T06:05:03.154Z,26.83
2023-01-09T06:07:31.498Z,27.77
2023-01-09T06:09:59.817Z,27.25
2023-01-09T06:12:28.043Z,29.35
2023-01-09T06:14:56.332Z,25.45
2023-01-09T06:17:24.499Z,27.10
2023-01-09T06:19:52.696Z,26.00
2023-01-09T06:22:20.918Z,27.92
2023-01-09T06:24:49.373Z,28.00
2023-01-09T06:27:17.762Z,29.30
2023-01-09T06:29:45.846Z,30.05
2023-01-09T06:32:14.081Z,29.58
2023-01-09T06:34:42.371Z,31.75
2023-01-09T06:37:11.128Z,28.98
2023-01-09T06:39:39.201Z,29.35
2023-01-09T06:42:07.583Z,28.70
2023-01-09T06:44:36.065Z,28.77
2023-01-09T06:47:05.056Z,28.50
2023-01-09T06:49:33.278Z,30.05
2023-01-09T06:52:01.585Z,27.45
2023-01-09T06:54:29.934Z,27.45
2023-01-09T06:56:58.247Z,29.15
2023-01-09T06:59:26.636Z,29.58
2023-01-09T07:01:54.963Z,32.50
2023-01-09T07:04:23.401Z,34.47
2023-01-09T07:06:51.582Z,31.35
2023-01-09T07:09:19.771Z,32.28
2023-01-09T07:11:47.923Z,37.53
2023-01-09T07:14:16.155Z,35.15
2023-01-09T07:16:44.337Z,35.13
2023-01-09T07:19:12.399Z,32.95
2023-01-09T07:21:40.732Z,32.30
2023-01-09T07:24:09.036Z,34.17
2023-01-09T07:26:37.199Z,34.45
2023-01-09T07:29:05.633Z,35.65
2023-01-09T07:31:33.920Z,36.05
2023-01-09T07:34:02.187Z,34.97
2023-01-09T07:36:30.311Z,36.22
2023-01-09T07:38:58.651Z,35.58
2023-01-09T07:41:27.184Z,38.65
2023-01-09T07:43:55.651Z,36.15
2023-01-09T07:46:23.843Z,34.30
2023-01-09T07:48:52.143Z,37.40
2023-01-09T07:51:20.337Z,39.83
2023-01-09T07:53:48.359Z,37.97
2023-01-09T07:56:16.700Z,41.13
2023-01-09T07:58:44.772Z,42.90
2023-01-09T08:01:13.205Z,41.58
2023-01-09T08:03:41.683Z,36.05
2023-01-09T08:06:10.101Z,37.88
2023-01-09T08:08:38.346Z,34.03
2023-01-09T08:11:06.691Z,32.53
2023-01-09T08:13:35.262Z,33.03
2023-01-09T08:16:03.660Z,32.95
2023-01-09T08:18:32.105Z,31.25
2023-01-09T08:21:01.150Z,32.40
2023-01-09T08:23:30.023Z,31.77
2023-01-09T08:25:58.318Z,29.60
2023-01-09T08:28:26.596Z,28.98
2023-01-09T08:30:54.940Z,32.70
2023-01-09T08:33:23.385Z,31.90
2023-01-09T08:35:51.616Z,32.22
2023-01-09T08:38:19.888Z,33.78
2023-01-09T08:40:48.796Z,30.50
2023-01-09T08:43:17.040Z,31.25
2023-01-09T08:45:45.142Z,30.67
2023-01-09T08:48:13.554Z,31.77
2023-01-09T08:50:41.871Z,26.58
2023-01-09T08:53:10.970Z,29.25
2023-01-09T08:55:39.717Z,29.10
2023-01-09T08:58:08.015Z,28.42
2023-01-09T09:00:36.262Z,27.35
2023-01-09T09:03:04.857Z,27.17
2023-01-09T09:05:33.909Z,28.73
2023-01-09T09:08:02.328Z,32.15
2023-01-09T09:10:31.185Z,28.23
2023-01-09T09:12:59.989Z,31.25
2023-01-09T09:15:30.058Z,27.70
2023-01-09T09:18:00.620Z,26.75
2023-01-09T09:20:35.341Z,24.95
2023-01-09T09:23:03.865Z,25.15
2023-01-09T09:25:32.601Z,29.13
2023-01-09T09:28:01.300Z,29.42
2023-01-09T09:30:29.739Z,24.75
2023-01-09T09:32:57.972Z,23.88
2023-01-09T09:35:26.306Z,23.55
2023-01-09T09:37:59.951Z,22.55
2023-01-09T09:40:48.865Z,27.52
2023-01-09T09:43:44.627Z,26.70
2023-01-09T09:46:42.232Z,28.33
2023-01-09T09:49:27.689Z,25.13
2023-01-09T09:52:14.472Z,32.10
2023-01-09T09:54:50.082Z,27.40
2023-01-09T09:57:33.042Z,26.88
2023-01-09T10:00:02.974Z,28.92
2023-01-09T10:02:46.652Z,26.45
2023-01-09T10:05:35.930Z,32.08
2023-01-09T10:08:28.347Z,25.45
2023-01-09T10:13:26.010Z,25.63
2023-01-09T10:16:36.940Z,23.45
2023-01-09T10:19:28.331Z,25.25
2023-01-09T10:22:15.073Z,23.98
2023-01-09T10:25:04.883Z,25.40
2023-01-09T10:27:57.657Z,25.67
2023-01-09T10:30:38.149Z,29.40
2023-01-09T10:33:24.749Z,22.38
2023-01-09T10:35:58.997Z,21.65
2023-01-09T10:38:41.051Z,26.33
2023-01-09T10:41:21.801Z,26.70
2023-01-09T10:43:57.937Z,23.70
2023-01-09T10:46:37.509Z,24.17
2023-01-09T10:49:15.228Z,25.45
2023-01-09T10:52:05.554Z,20.90
2023-01-09T10:54:33.985Z,18.85
2023-01-09T10:57:02.191Z,22.55
2023-01-09T10:59:30.684Z,21.02
2023-01-09T11:01:59.174Z,19.65
2023-01-09T11:04:31.819Z,23.08
2023-01-09T11:07:07.908Z,21.70
2023-01-09T11:10:09.813Z,56.78
2023-01-09T11:12:38.753Z,30.90
2023-01-09T11:15:18.925Z,21.92
2023-01-09T11:17:48.782Z,22.83
2023-01-09T11:20:18.606Z,39.85
2023-01-09T11:23:05.048Z,26.70
2023-01-09T11:25:33.325Z,22.42
2023-01-09T11:28:04.371Z,18.48
2023-01-09T11:30:37.655Z,20.67
2023-01-09T11:33:19.287Z,21.45
2023-01-09T11:35:57.897Z,20.52
2023-01-09T11:38:26.581Z,19.75
2023-01-09T11:41:03.476Z,19.13
2023-01-09T11:43:33.730Z,19.02
2023-01-09T11:46:10.971Z,20.70
2023-01-09T11:48:52.954Z,32.53
2023-01-09T11:51:33.368Z,20.20
2023-01-09T11:54:05.622Z,19.98
2023-01-09T11:56:34.346Z,19.45
2023-01-09T11:59:02.693Z,19.35
2023-01-09T12:02:08.023Z,18.27
2023-01-09T12:04:47.454Z,19.63
2023-01-09T12:07:44.806Z,35.10
2023-01-09T12:10:56.167Z,18.17
2023-01-09T12:14:01.478Z,19.85
2023-01-09T12:16:51.089Z,21.17
2023-01-09T12:19:38.135Z,19.15
2023-01-09T12:22:17.632Z,20.10
2023-01-09T12:25:12.358Z,19.05
2023-01-09T12:28:09.588Z,18.17
2023-01-09T12:31:10.049Z,20.77
2023-01-09T12:33:56.272Z,18.15
2023-01-09T12:36:30.565Z,17.27
2023-01-09T12:39:23.458Z,19.08
2023-01-09T12:41:51.741Z,23.67
2023-01-09T12:44:44.302Z,20.17
2023-01-09T12:47:43.321Z,19.33
2023-01-09T12:50:15.783Z,19.08
2023-01-09T12:52:58.030Z,23.60
2023-01-09T12:55:30.769Z,22.95
2023-01-09T12:58:02.499Z,20.40
2023-01-09T13:00:57.168Z,17.70
2023-01-09T13:03:41.609Z,19.90
2023-01-09T13:06:16.887Z,21.55
2023-01-09T13:08:55.570Z,21.35
2023-01-09T13:11:38.697Z,20.70
2023-01-09T13:14:48.652Z,19.60
2023-01-09T13:17:39.528Z,19.55
2023-01-09T13:20:33.886Z,21.42
2023-01-09T13:23:04.821Z,23.20
2023-01-09T13:25:54.436Z,20.77
2023-01-09T13:28:29.531Z,21.63
2023-01-09T13:31:16.116Z,21.63
2023-01-09T13:33:51.866Z,20.52
2023-01-09T13:36:26.451Z,20.88
2023-01-09T13:38:57.136Z,21.42
2023-01-09T13:41:26.685Z,20.73
2023-01-09T13:44:06.398Z,19.95
2023-01-09T13:46:42.533Z,20.92
2023-01-09T13:49:41.233Z,22.48
2023-01-09T13:52:38.422Z,19.65
2023-01-09T13:55:12.545Z,19.45
2023-01-09T13:57:44.075Z,18.48
2023-01-09T14:00:18.165Z,20.42
2023-01-09T14:02:46.427Z,16.95
2023-01-09T14:05:15.767Z,18.60
2023-01-09T14:07:44.842Z,21.35
2023-01-09T14:10:35.175Z,18.05
2023-01-09T14:13:18.160Z,19.08
2023-01-09T14:15:47.133Z,19.25
2023-01-09T14:18:19.655Z,18.17
2023-01-09T14:20:58.177Z,16.52
2023-01-09T14:23:52.126Z,18.60
2023-01-09T14:26:24.015Z,18.17
2023-01-09T14:28:52.889Z,20.58
2023-01-09T14:31:33.518Z,17.88
2023-01-09T14:34:32.394Z,18.70
2023-01-09T14:37:02.986Z,20.85
2023-01-09T14:39:33.160Z,19.10
2023-01-09T14:42:05.309Z,19.45
2023-01-09T14:44:46.107Z,21.25
2023-01-09T14:47:32.676Z,18.35
2023-01-09T14:50:26.427Z,18.52
2023-01-09T14:53:19.488Z,20.38
2023-01-09T14:55:57.011Z,19.80
2023-01-09T14:58:29.497Z,18.10
2023-01-09T15:01:18.286Z,25.95
2023-01-09T15:03:54.110Z,19.13
2023-01-09T15:06:30.990Z,20.63
2023-01-09T15:09:06.130Z,20.88
2023-01-09T15:11:35.791Z,19.52
2023-01-09T15:14:05.382Z,20.50
2023-01-09T15:16:33.997Z,19.90
2023-01-09T15:19:08.446Z,21.05
2023-01-09T15:21:36.734Z,23.50
2023-01-09T15:24:26.729Z,20.92
2023-01-09T15:26:59.769Z,20.00
2023-01-09T15:29:28.759Z,18.83
2023-01-09T15:32:07.711Z,19.30
2023-01-09T15:34:37.047Z,20.95
2023-01-09T15:37:05.460Z,20.40
2023-01-09T15:39:37.984Z,21.00
2023-01-09T15:42:15.805Z,19.73
2023-01-09T15:44:47.852Z,18.65
2023-01-09T15:47:24.711Z,19.45
2023-01-09T15:49:53.986Z,21.25
2023-01-09T15:52:22.803Z,20.83
2023-01-09T15:54:51.428Z,20.95
2023-01-09T15:57:29.762Z,24.10
2023-01-09T16:00:18.960Z,23.63
2023-01-09T16:02:47.913Z,20.92
2023-01-09T16:05:17.913Z,22.35
2023-01-09T16:07:51.299Z,21.55
2023-01-09T16:10:26.147Z,23.02
2023-01-09T16:12:54.609Z,23.65
2023-01-09T16:15:22.855Z,25.65
2023-01-09T16:18:16.209Z,24.08
2023-01-09T16:20:45.678Z,27.73
2023-01-09T16:23:32.972Z,23.88
2023-01-09T16:26:07.433Z,24.55
2023-01-09T16:28:35.858Z,21.17
2023-01-09T16:31:07.649Z,22.33
2023-01-09T16:36:05.917Z,30.55
2023-01-09T16:38:34.240Z,28.50
2023-01-09T16:41:08.467Z,27.38
2023-01-09T16:43:36.817Z,28.27
2023-01-09T16:46:05.261Z,25.38
2023-01-09T16:48:35.083Z,25.63
2023-01-09T16:51:03.292Z,37.65
2023-01-09T16:53:31.483Z,26.17
2023-01-09T16:56:00.228Z,25.35
2023-01-09T16:58:34.063Z,27.88
2023-01-09T17:01:02.471Z,25.20
2023-01-09T17:03:30.876Z,39.45
2023-01-09T17:06:01.012Z,83.45
2023-01-09T17:08:34.913Z,45.63
2023-01-09T17:11:03.326Z,27.20
2023-01-09T17:13:31.649Z,48.78
2023-01-09T17:16:00.416Z,48.30
2023-01-09T17:18:30.081Z,40.60
2023-01-09T17:20:58.863Z,35.47
2023-01-09T17:23:27.068Z,46.58
2023-01-09T17:26:00.357Z,45.65
2023-01-09T17:28:29.297Z,40.65
2023-01-09T17:30:57.562Z,36.47
2023-01-09T17:33:25.831Z,27.08
2023-01-09T17:35:54.428Z,33.80
2023-01-09T17:38:22.758Z,41.28
2023-01-09T17:40:51.645Z,78.20
2023-01-09T17:43:20.021Z,77.45
2023-01-09T17:45:48.645Z,90.40
2023-01-09T17:48:19.160Z,54.83
2023-01-09T17:50:48.556Z,51.97
2023-01-09T17:53:16.937Z,49.97
2023-01-09T17:55:45.298Z,61.20
2023-01-09T17:58:27.445Z,63.47
2023-01-09T18:03:24.001Z,77.50
2023-01-09T18:05:52.714Z,86.57
2023-01-09T18:08:21.059Z,50.75
2023-01-09T18:10:49.476Z,47.35
2023-01-09T18:13:18.093Z,33.55
2023-01-09T18:15:47.100Z,54.20
2023-01-09T18:18:15.836Z,104.55
2023-01-09T18:20:45.131Z,109.03
2023-01-09T18:23:13.710Z,92.50
2023-01-09T18:25:43.116Z,79.70
2023-01-09T18:28:13.259Z,97.40
2023-01-09T18:30:42.334Z,93.28
2023-01-09T18:33:10.893Z,83.30
2023-01-09T18:35:39.313Z,91.13
2023-01-09T18:38:08.304Z,96.35
2023-01-09T18:40:36.476Z,86.93
2023-01-09T18:43:05.321Z,82.45
2023-01-09T18:45:36.990Z,78.65
2023-01-09T18:48:06.873Z,59.15
2023-01-09T18:50:36.613Z,67.95
2023-01-09T18:53:04.803Z,73.80
2023-01-09T18:55:33.196Z,58.13
2023-01-09T18:58:01.414Z,48.33
2023-01-09T19:00:29.697Z,42.08
2023-01-09T19:02:58.028Z,46.78
2023-01-09T19:05:26.476Z,39.70
2023-01-09T19:07:54.847Z,33.42
2023-01-09T19:10:23.083Z,33.03
2023-01-09T19:12:52.505Z,33.58
2023-01-09T19:15:20.693Z,30.25
2023-01-09T19:17:48.786Z,32.60
2023-01-09T19:20:17.289Z,35.42
2023-01-09T19:22:45.505Z,41.28
2023-01-09T19:25:13.744Z,47.30
2023-01-09T19:27:42.184Z,44.60
2023-01-09T19:30:11.132Z,40.22
2023-01-09T19:32:40.697Z,39.17
2023-01-09T19:35:09.273Z,52.22
2023-01-09T19:37:37.559Z,50.47
2023-01-09T19:40:06.291Z,41.90
2023-01-09T19:42:34.677Z,47.35
2023-01-09T19:45:02.929Z,43.30
2023-01-09T19:47:34.073Z,47.55
2023-01-09T19:50:04.873Z,48.90
2023-01-09T19:52:33.520Z,44.40
2023-01-09T19:55:01.781Z,42.85
2023-01-09T19:57:30.199Z,53.30
2023-01-09T19:59:58.485Z,65.55
2023-01-09T20:02:27.023Z,63.35
2023-01-09T20:04:55.543Z,76.72
2023-01-09T20:07:23.715Z,66.53
2023-01-09T20:09:52.217Z,58.15
2023-01-09T20:12:20.513Z,54.95
2023-01-09T20:14:48.631Z,63.13
2023-01-09T20:17:17.166Z,50.20
2023-01-09T20:19:45.572Z,60.92
2023-01-09T20:22:14.487Z,65.97
2023-01-09T20:24:42.982Z,68.97
2023-01-09T20:27:11.333Z,75.00
2023-01-09T20:29:39.769Z,64.53
2023-01-09T20:32:08.349Z,60.63
2023-01-09T20:34:36.685Z,57.60
2023-01-09T20:37:05.043Z,50.10
2023-01-09T20:39:33.609Z,50.63
2023-01-09T20:42:01.810Z,45.92
2023-01-09T20:44:30.107Z,43.70
2023-01-09T20:46:58.272Z,76.70
2023-01-09T20:49:26.439Z,67.32
2023-01-09T20:51:54.840Z,54.95
2023-01-09T20:54:24.546Z,73.43
2023-01-09T20:56:52.936Z,105.25
2023-01-09T20:59:21.511Z,99.38
2023-01-09T21:01:50.451Z,85.30
2023-01-09T21:04:19.147Z,79.97
2023-01-09T21:06:50.353Z,80.35
2023-01-09T21:09:19.041Z,85.57
2023-01-09T21:11:47.376Z,79.88
2023-01-09T21:14:15.568Z,83.68
2023-01-09T21:16:51.326Z,79.40
2023-01-09T21:19:22.075Z,90.95
2023-01-09T21:21:52.929Z,98.30
2023-01-09T21:24:21.357Z,65.40
2023-01-09T21:26:49.606Z,71.15
2023-01-09T21:29:17.996Z,72.40
2023-01-09T21:31:46.330Z,75.60
2023-01-09T21:34:14.726Z,76.82
2023-01-09T21:36:43.088Z,77.22
2023-01-09T21:39:11.780Z,74.88
2023-01-09T21:41:40.213Z,59.70
2023-01-09T21:44:14.906Z,49.05
2023-01-09T21:46:43.218Z,43.08
2023-01-09T21:49:11.444Z,64.85
2023-01-09T21:51:39.840Z,61.08
2023-01-09T21:54:10.319Z,58.22
2023-01-09T21:56:38.778Z,44.85
2023-01-09T21:59:07.247Z,52.42
2023-01-09T22:01:35.537Z,43.97
2023-01-09T22:04:05.184Z,46.00
2023-01-09T22:06:35.691Z,53.70
2023-01-09T22:09:04.200Z,38.67
2023-01-09T22:11:32.532Z,54.08
2023-01-09T22:14:00.936Z,56.83
2023-01-09T22:16:29.530Z,60.40
2023-01-09T22:18:58.538Z,58.85
2023-01-09T22:21:26.996Z,52.38
2023-01-09T22:23:55.292Z,52.42
2023-01-09T22:26:23.835Z,48.75
2023-01-09T22:28:51.962Z,50.42
2023-01-09T22:31:23.477Z,39.72
2023-01-09T22:33:56.875Z,32.13
2023-01-09T22:36:26.366Z,32.40
2023-01-09T22:38:55.603Z,38.60
2023-01-09T22:41:25.718Z,38.90
2023-01-09T22:43:54.165Z,40.28
2023-01-09T22:46:22.478Z,44.45
2023-01-09T22:48:50.822Z,45.38
2023-01-09T22:51:21.359Z,41.58
2023-01-09T22:53:51.000Z,38.78
2023-01-09T22:56:21.846Z,53.90
2023-01-09T22:58:55.190Z,57.05
2023-01-09T23:01:23.873Z,32.78
2023-01-09T23:03:52.228Z,34.97
2023-01-09T23:06:22.715Z,35.40
2023-01-09T23:08:52.383Z,37.08
2023-01-09T23:11:31.819Z,35.58
2023-01-09T23:14:00.323Z,33.20
2023-01-09T23:16:28.463Z,38.13
2023-01-09T23:18:56.865Z,33.97
2023-01-09T23:21:25.119Z,29.58
2023-01-09T23:23:53.531Z,31.88
2023-01-09T23:26:21.759Z,32.20
2023-01-09T23:28:49.942Z,38.15
2023-01-09T23:31:18.318Z,34.20
2023-01-09T23:33:46.432Z,35.83
2023-01-09T23:36:14.665Z,45.50
2023-01-09T23:38:43.010Z,37.00
2023-01-09T23:41:11.143Z,34.42
2023-01-09T23:43:39.367Z,38.20
2023-01-09T23:46:07.673Z,59.88
2023-01-09T23:48:36.073Z,84.32
2023-01-09T23:51:04.460Z,90.57
2023-01-09T23:53:33.332Z,122.63
2023-01-09T23:56:01.773Z,188.15
2023-01-09T23:58:29.993Z,185.90
